Time;durP1;ratioP1;P1;durP2;ratioP2;P2;SDS_P1;SDS_P2;PMS_P1;PMS_P2;Temp;Humidity;BMP_temperature;BMP_pressure;BME280_temperature;BME280_humidity;BME280_pressure;Samples;Min_cycle;Max_cycle;Signal;HPM_P1;HPM_P2
2022/11/30 00:01:53;;;;;;;;;;;;;;;21.89;49.01;101754.34;5047994;28;4095;-68
2022/11/30 00:04:19;;;;;;;;;;;;;;;21.89;49.06;101757.25;5049265;28;4171;-67
2022/11/30 00:06:45;;;;;;;;;;;;;;;21.88;49.25;101752.88;5042069;28;5182;-68
2022/11/30 00:09:12;;;;;;;;;;;;;;;21.85;49.06;101752.03;5039481;28;4040;-68
2022/11/30 00:11:38;;;;;;;;;;;;;;;21.88;48.83;101758.66;5041809;28;4125;-68
2022/11/30 00:14:04;;;;;;;;;;;;;;;21.88;48.88;101758.66;5050646;28;4179;-68
2022/11/30 00:16:31;;;;;;;;;;;;;;;21.85;48.85;101754.91;5049244;28;4492;-68
2022/11/30 00:18:57;;;;;;;;;;;;;;;21.87;48.88;101757.13;5051054;28;5197;-67
2022/11/30 00:21:24;;;;;;;;;;;;;;;21.86;48.74;101762.16;5055278;28;4529;-68
2022/11/30 00:23:50;;;;;;;;;;;;;;;21.83;48.89;101757.66;5048682;28;4203;-67
2022/11/30 00:26:17;;;;;;;;;;;;;;;21.83;48.79;101754.03;5044854;28;3973;-68
2022/11/30 00:28:44;;;;;;;;;;;;;;;21.82;48.87;101766.94;5051994;28;3998;-68
2022/11/30 00:31:11;;;;;;;;;;;;;;;21.81;48.99;101768.34;5044525;28;5288;-68
2022/11/30 00:33:38;;;;;;;;;;;;;;;21.80;48.93;101753.16;5046457;28;4098;-68
2022/11/30 00:36:05;;;;;;;;;;;;;;;21.80;48.72;101758.19;5045182;28;4031;-68
2022/11/30 00:38:31;;;;;;;;;;;;;;;21.81;48.64;101762.59;5050807;28;4871;-67
2022/11/30 00:40:58;;;;;;;;;;;;;;;21.79;48.69;101756.69;5051900;28;4267;-68
2022/11/30 00:43:25;;;;;;;;;;;;;;;21.77;48.92;101756.59;5045074;28;4208;-68
2022/11/30 00:45:51;;;;;;;;;;;;;;;21.80;48.68;101763.94;5050836;28;5284;-68
2022/11/30 00:48:17;;;;;;;;;;;;;;;21.79;48.93;101766.09;5041173;28;4177;-68
2022/11/30 00:50:44;;;;;;;;;;;;;;;21.78;48.65;101766.72;5048148;28;4237;-68
2022/11/30 00:53:10;;;;;;;;;;;;;;;21.77;48.62;101763.09;5053628;28;4054;-68
2022/11/30 00:55:36;;;;;;;;;;;;;;;21.77;48.79;101765.25;5046813;28;6359;-68
2022/11/30 00:58:03;;;;;;;;;;;;;;;21.75;48.60;101769.50;5052406;28;4199;-68
2022/11/30 01:00:29;;;;;;;;;;;;;;;21.75;48.73;101769.50;5048369;28;4347;-68
2022/11/30 01:02:55;;;;;;;;;;;;;;;21.77;48.91;101776.78;5049892;28;4257;-68
2022/11/30 01:05:22;;;;;;;;;;;;;;;21.74;48.95;101773.78;5048798;28;4348;-68
2022/11/30 01:07:48;;;;;;;;;;;;;;;21.78;48.82;101775.38;5045305;28;5375;-68
2022/11/30 01:10:15;;;;;;;;;;;;;;;21.78;48.84;101766.72;5051493;28;5094;-68
2022/11/30 01:12:41;;;;;;;;;;;;;;;21.74;48.81;101779.53;5052840;28;4300;-67
2022/11/30 01:15:07;;;;;;;;;;;;;;;21.76;48.85;101776.00;5041979;28;5291;-68
2022/11/30 01:17:34;;;;;;;;;;;;;;;21.75;48.82;101781.03;5054148;28;4179;-68
2022/11/30 01:20:00;;;;;;;;;;;;;;;21.74;48.66;101773.03;5044935;28;4212;-68
2022/11/30 01:22:26;;;;;;;;;;;;;;;21.75;48.62;101781.03;5041436;28;4159;-68
2022/11/30 01:24:53;;;;;;;;;;;;;;;21.73;48.73;101789.56;5048835;28;4119;-67
2022/11/30 01:27:19;;;;;;;;;;;;;;;21.74;48.91;101779.53;5051315;28;4045;-67
2022/11/30 01:29:45;;;;;;;;;;;;;;;21.71;48.77;101785.81;5048975;28;4469;-68
2022/11/30 01:32:12;;;;;;;;;;;;;;;21.71;48.77;101785.81;5047425;28;4306;-68
2022/11/30 01:34:38;;;;;;;;;;;;;;;21.72;48.60;101782.31;5051805;28;4527;-68
2022/11/30 01:37:06;;;;;;;;;;;;;;;21.69;48.69;101786.47;5041043;28;4266;-68
2022/11/30 01:39:33;;;;;;;;;;;;;;;21.69;48.69;101782.81;5040042;28;4131;-68
2022/11/30 01:41:59;;;;;;;;;;;;;;;21.68;48.67;101784.97;5043766;28;4043;-68
2022/11/30 01:44:26;;;;;;;;;;;;;;;21.67;48.66;101785.59;5043630;28;4392;-68
2022/11/30 01:47:05;;;;;;;;;;;;;;;21.65;48.61;101783.34;5034045;28;4535;-67
2022/11/30 01:49:32;;;;;;;;;;;;;;;21.67;48.67;101783.47;5037569;28;4127;-68
2022/11/30 01:51:59;;;;;;;;;;;;;;;21.63;48.71;101791.88;5040774;28;4405;-68
2022/11/30 01:54:28;;;;;;;;;;;;;;;21.63;48.64;101794.78;5049869;28;4198;-68
2022/11/30 01:56:55;;;;;;;;;;;;;;;21.62;48.82;101790.38;5048136;28;4570;-68
2022/11/30 01:59:22;;;;;;;;;;;;;;;21.63;48.69;101794.03;5044372;28;6364;-69
2022/11/30 02:01:48;;;;;;;;;;;;;;;21.59;48.90;101791.66;5035109;28;4166;-68
2022/11/30 02:04:19;;;;;;;;;;;;;;;21.60;48.72;101787.41;5036784;28;4193;-68
2022/11/30 02:06:46;;;;;;;;;;;;;;;21.62;48.82;101787.50;5040014;28;4137;-68
2022/11/30 02:09:12;;;;;;;;;;;;;;;21.63;48.94;101796.91;5040737;28;4539;-68
2022/11/30 02:11:38;;;;;;;;;;;;;;;21.62;49.07;101796.13;5037597;28;4195;-68
2022/11/30 02:14:21;;;;;;;;;;;;;;;21.63;49.23;101797.66;5038674;28;4048;-68
2022/11/30 02:16:47;;;;;;;;;;;;;;;21.63;49.20;101791.88;5037236;28;4039;-67
2022/11/30 02:19:36;;;;;;;;;;;;;;;21.64;49.31;101790.50;5034489;28;4012;-68
2022/11/30 02:22:06;;;;;;;;;;;;;;;21.65;49.36;101794.16;5037898;28;4261;-68
2022/11/30 02:24:51;;;;;;;;;;;;;;;21.64;49.18;101799.13;5037604;28;4142;-67
2022/11/30 02:27:21;;;;;;;;;;;;;;;21.63;49.45;101791.88;5040006;28;5395;-68
2022/11/30 02:29:55;;;;;;;;;;;;;;;21.64;49.25;101798.41;5032466;28;5116;-67
2022/11/30 02:32:23;;;;;;;;;;;;;;;21.63;49.40;101791.16;5027663;28;4156;-68
2022/11/30 02:34:50;;;;;;;;;;;;;;;21.63;49.35;101797.66;5037347;28;4325;-68
2022/11/30 02:37:16;;;;;;;;;;;;;;;21.62;49.45;101799.03;5044373;28;5180;-68
2022/11/30 02:39:42;;;;;;;;;;;;;;;21.60;49.38;101793.16;5037282;28;4129;-68
2022/11/30 02:42:09;;;;;;;;;;;;;;;21.61;49.32;101794.66;5032750;28;4059;-67
2022/11/30 02:44:36;;;;;;;;;;;;;;;21.60;49.28;101792.41;5036932;28;4153;-67
2022/11/30 02:47:21;;;;;;;;;;;;;;;21.58;49.55;101787.28;5040514;28;4040;-68
2022/11/30 02:49:52;;;;;;;;;;;;;;;21.57;49.18;101787.91;5031171;28;4055;-67
2022/11/30 02:52:20;;;;;;;;;;;;;;;21.58;49.53;101793.06;5040327;28;4047;-67
2022/11/30 02:54:46;;;;;;;;;;;;;;;21.57;49.49;101788.66;5035710;28;4124;-68
2022/11/30 02:57:13;;;;;;;;;;;;;;;21.55;49.34;101797.19;5039573;28;4101;-67
2022/11/30 02:59:39;;;;;;;;;;;;;;;21.55;49.33;101797.19;5041762;28;4009;-68
2022/11/30 03:02:06;;;;;;;;;;;;;;;21.53;49.47;101802.84;5047543;28;5194;-68
2022/11/30 03:04:32;;;;;;;;;;;;;;;21.52;49.60;101804.22;5046907;28;4176;-68
2022/11/30 03:06:59;;;;;;;;;;;;;;;21.53;49.29;101802.84;5045708;28;4134;-68
2022/11/30 03:09:25;;;;;;;;;;;;;;;21.52;49.32;101810.00;5050340;28;5274;-68
2022/11/30 03:11:51;;;;;;;;;;;;;;;21.51;49.42;101814.28;5047526;28;5295;-68
2022/11/30 03:14:18;;;;;;;;;;;;;;;21.51;49.46;101808.50;5046921;28;4164;-68
2022/11/30 03:16:44;;;;;;;;;;;;;;;21.50;49.25;101807.72;5044686;28;5230;-67
2022/11/30 03:19:11;;;;;;;;;;;;;;;21.49;49.34;101793.97;5052114;28;4202;-68
2022/11/30 03:21:37;;;;;;;;;;;;;;;21.47;49.34;101799.63;5043110;28;4118;-68
2022/11/30 03:24:04;;;;;;;;;;;;;;;21.48;49.37;101798.97;5049175;28;4331;-67
2022/11/30 03:26:30;;;;;;;;;;;;;;;21.48;49.58;101798.22;5045877;28;4272;-68
2022/11/30 03:28:56;;;;;;;;;;;;;;;21.47;49.26;101802.50;5047049;28;4324;-68
2022/11/30 03:31:23;;;;;;;;;;;;;;;21.48;49.19;101804.00;5045515;28;4185;-68
2022/11/30 03:33:49;;;;;;;;;;;;;;;21.48;49.27;101806.88;5039040;28;6609;-67
2022/11/30 03:36:15;;;;;;;;;;;;;;;21.48;49.20;101804.00;5050346;28;4200;-68
2022/11/30 03:38:42;;;;;;;;;;;;;;;21.47;49.50;101811.91;5053301;28;4111;-68
2022/11/30 03:41:12;;;;;;;;;;;;;;;21.47;49.22;101809.00;5050757;28;5473;-68
2022/11/30 03:43:39;;;;;;;;;;;;;;;21.50;49.28;101812.75;5056235;28;4124;-67
2022/11/30 03:46:05;;;;;;;;;;;;;;;21.54;49.53;101810.09;5048001;28;4115;-68
2022/11/30 03:48:32;;;;;;;;;;;;;;;21.55;49.41;101814.47;5054372;28;4126;-68
2022/11/30 03:50:58;;;;;;;;;;;;;;;21.57;48.93;101816.72;5051654;28;4124;-68
2022/11/30 03:53:24;;;;;;;;;;;;;;;21.60;48.97;101816.22;5055843;28;5035;-67
2022/11/30 03:55:55;;;;;;;;;;;;;;;21.60;49.11;101819.09;5050208;28;4254;-68
2022/11/30 03:58:21;;;;;;;;;;;;;;;21.62;49.73;101818.44;5057948;28;5241;-72
2022/11/30 04:00:48;;;;;;;;;;;;;;;21.63;49.54;101825.72;5048169;28;4199;-68
2022/11/30 04:03:14;;;;;;;;;;;;;;;21.61;49.45;101828.50;5058331;28;4135;-68
2022/11/30 04:05:41;;;;;;;;;;;;;;;21.61;49.83;101820.59;5057450;28;5109;-68
2022/11/30 04:08:07;;;;;;;;;;;;;;;21.62;49.46;101824.97;5061546;28;4178;-68
2022/11/30 04:10:34;;;;;;;;;;;;;;;21.63;49.65;101828.63;5050603;28;4231;-67
2022/11/30 04:13:00;;;;;;;;;;;;;;;21.64;49.81;101833.72;5046055;28;4155;-68
2022/11/30 04:15:26;;;;;;;;;;;;;;;21.66;50.00;101836.72;5049214;28;4147;-68
2022/11/30 04:17:53;;;;;;;;;;;;;;;21.67;49.79;101832.47;5045433;28;4246;-68
2022/11/30 04:20:19;;;;;;;;;;;;;;;21.68;49.73;101828.19;5042542;28;4144;-68
2022/11/30 04:22:45;;;;;;;;;;;;;;;21.67;49.82;101829.59;5049614;28;4438;-67
2022/11/30 04:25:12;;;;;;;;;;;;;;;21.69;49.82;101838.34;5053284;28;4154;-67
2022/11/30 04:27:38;;;;;;;;;;;;;;;21.68;49.63;101828.19;5044362;28;6298;-67
2022/11/30 04:30:05;;;;;;;;;;;;;;;21.69;49.82;101834.69;5037444;28;4040;-68
2022/11/30 04:32:31;;;;;;;;;;;;;;;21.67;49.80;101838.25;5039666;28;5246;-67
2022/11/30 04:34:58;;;;;;;;;;;;;;;21.69;50.05;101834.69;5047001;28;5096;-68
2022/11/30 04:37:24;;;;;;;;;;;;;;;21.69;49.63;101847.00;5053660;28;4121;-68
2022/11/30 04:39:50;;;;;;;;;;;;;;;21.69;49.72;101844.13;5043617;28;4098;-68
2022/11/30 04:42:17;;;;;;;;;;;;;;;21.72;49.66;101845.72;5049780;28;5269;-68
2022/11/30 04:44:43;;;;;;;;;;;;;;;21.70;49.67;101842.72;5041787;28;4136;-68
2022/11/30 04:47:10;;;;;;;;;;;;;;;21.69;49.65;101849.88;5046190;28;5260;-68
2022/11/30 04:49:36;;;;;;;;;;;;;;;21.71;50.03;101844.22;5039937;28;5414;-68
2022/11/30 04:52:02;;;;;;;;;;;;;;;21.70;49.73;101848.50;5044072;28;4160;-68
2022/11/30 04:54:29;;;;;;;;;;;;;;;21.67;49.68;101854.75;5031552;28;4205;-68
2022/11/30 04:56:55;;;;;;;;;;;;;;;21.68;49.74;101851.25;5030216;28;4232;-67
2022/11/30 04:59:21;;;;;;;;;;;;;;;21.66;49.80;101842.50;5041553;28;4115;-73
2022/11/30 05:01:48;;;;;;;;;;;;;;;21.66;49.67;101851.13;5039992;28;4220;-67
2022/11/30 05:04:14;;;;;;;;;;;;;;;21.66;49.72;101848.25;5044043;28;4246;-68
2022/11/30 05:06:40;;;;;;;;;;;;;;;21.70;49.74;101853.50;5048069;28;4449;-68
2022/11/30 05:09:07;;;;;;;;;;;;;;;21.72;49.96;101848.63;5041703;28;4219;-68
2022/11/30 05:11:33;;;;;;;;;;;;;;;21.72;49.72;101850.75;5035816;28;5242;-68
2022/11/30 05:14:00;;;;;;;;;;;;;;;21.72;49.75;101857.25;5030175;28;4100;-68
2022/11/30 05:16:26;;;;;;;;;;;;;;;21.73;49.62;101858.00;5048380;28;4024;-67
2022/11/30 05:18:52;;;;;;;;;;;;;;;21.74;49.87;101865.28;5039885;28;4192;-67
2022/11/30 05:21:19;;;;;;;;;;;;;;;21.74;49.90;101874.69;5047222;28;4244;-67
2022/11/30 05:23:47;;;;;;;;;;;;;;;21.72;49.67;101871.69;5044950;28;4137;-68
2022/11/30 05:26:14;;;;;;;;;;;;;;;21.72;49.76;101868.03;5041466;28;5183;-68
2022/11/30 05:28:40;;;;;;;;;;;;;;;21.72;49.62;101874.56;5035362;28;5506;-68
2022/11/30 05:31:06;;;;;;;;;;;;;;;21.72;49.73;101879.59;5036641;28;4186;-68
2022/11/30 05:33:33;;;;;;;;;;;;;;;21.74;49.69;101883.31;5041787;28;4200;-68
2022/11/30 05:35:59;;;;;;;;;;;;;;;21.75;49.85;101884.81;5037293;28;4306;-68
2022/11/30 05:38:32;;;;;;;;;;;;;;;21.78;49.66;101884.94;5039932;28;5231;-68
2022/11/30 05:40:59;;;;;;;;;;;;;;;21.77;49.59;101884.19;5040697;28;4228;-68
2022/11/30 05:43:26;;;;;;;;;;;;;;;21.75;49.46;101890.56;5035014;28;4365;-68
2022/11/30 05:45:57;;;;;;;;;;;;;;;21.77;49.70;101894.97;5039020;28;4131;-68
2022/11/30 05:48:23;;;;;;;;;;;;;;;21.75;49.88;101890.56;5032354;28;4248;-68
2022/11/30 05:50:50;;;;;;;;;;;;;;;21.73;49.63;101881.81;5017488;28;4211;-68
2022/11/30 05:53:16;;;;;;;;;;;;;;;21.73;50.04;101881.81;5027695;28;4476;-68
2022/11/30 05:55:43;;;;;;;;;;;;;;;21.66;49.59;101894.38;5024806;28;5126;-67
2022/11/30 05:58:09;;;;;;;;;;;;;;;21.53;49.99;101884.28;5032001;28;5153;-63
2022/11/30 06:00:36;;;;;;;;;;;;;;;21.74;49.32;101894.84;5032988;28;4404;-63
2022/11/30 06:03:02;;;;;;;;;;;;;;;21.60;49.14;101896.16;5044796;28;4002;-63
2022/11/30 06:05:28;;;;;;;;;;;;;;;21.63;48.97;101892.78;5047080;28;4141;-63
2022/11/30 06:07:57;;;;;;;;;;;;;;;21.67;49.71;101901.66;5046495;28;4563;-63
2022/11/30 06:10:24;;;;;;;;;;;;;;;21.73;49.69;101904.88;5045653;28;4194;-63
2022/11/30 06:12:51;;;;;;;;;;;;;;;21.80;49.96;101908.13;5045066;28;4175;-65
2022/11/30 06:15:17;;;;;;;;;;;;;;;21.83;50.66;101906.84;5038811;28;4185;-62
2022/11/30 06:17:43;;;;;;;;;;;;;;;21.80;50.33;101913.88;5044277;28;5364;-63
2022/11/30 06:20:10;;;;;;;;;;;;;;;21.83;50.45;101901.06;5044014;28;4349;-66
2022/11/30 06:22:36;;;;;;;;;;;;;;;21.88;50.43;101917.25;5042012;28;4316;-64
2022/11/30 06:25:03;;;;;;;;;;;;;;;21.87;51.54;101915.72;5048327;28;4200;-65
2022/11/30 06:27:30;;;;;;;;;;;;;;;21.82;52.43;101914.75;5049261;28;4196;-65
2022/11/30 06:29:56;;;;;;;;;;;;;;;21.80;52.04;101920.38;5054059;28;4169;-65
2022/11/30 06:32:23;;;;;;;;;;;;;;;21.79;52.55;101921.03;5043103;28;5222;-64
2022/11/30 06:34:49;;;;;;;;;;;;;;;21.75;52.28;101918.66;5048243;28;4120;-64
2022/11/30 06:37:15;;;;;;;;;;;;;;;21.73;52.73;101922.16;5047186;28;4251;-64
2022/11/30 06:39:42;;;;;;;;;;;;;;;21.70;52.44;101923.44;5052936;28;4122;-64
2022/11/30 06:42:29;;;;;;;;;;;;;;;21.69;52.24;101927.72;5052622;28;4256;-65
2022/11/30 06:44:55;;;;;;;;;;;;;;;21.70;53.01;101928.47;5054359;28;4178;-62
2022/11/30 06:47:22;;;;;;;;;;;;;;;21.72;53.31;101932.22;5053124;28;4192;-64
2022/11/30 06:49:48;;;;;;;;;;;;;;;21.70;52.56;101940.75;5057541;28;4184;-62
2022/11/30 06:52:14;;;;;;;;;;;;;;;21.60;52.53;101931.53;5052125;28;4173;-64
2022/11/30 06:54:41;;;;;;;;;;;;;;;21.58;52.44;101931.41;5052123;28;5318;-64
2022/11/30 06:57:07;;;;;;;;;;;;;;;21.61;52.38;101941.66;5053743;28;4135;-64
2022/11/30 06:59:35;;;;;;;;;;;;;;;21.61;53.32;101933.00;5056605;28;5201;-64
2022/11/30 07:02:02;;;;;;;;;;;;;;;21.57;53.32;101944.28;5051541;28;5226;-64
2022/11/30 07:04:35;;;;;;;;;;;;;;;21.56;53.20;101948.56;5054435;28;5194;-64
2022/11/30 07:07:02;;;;;;;;;;;;;;;21.54;52.90;101945.56;5057924;28;4183;-64
2022/11/30 07:09:28;;;;;;;;;;;;;;;21.53;53.05;101949.81;5054396;28;4198;-64
2022/11/30 07:11:54;;;;;;;;;;;;;;;21.49;53.32;101946.72;5057473;28;4086;-64
2022/11/30 07:14:21;;;;;;;;;;;;;;;21.48;52.90;101951.72;5059571;28;4128;-64
2022/11/30 07:16:47;;;;;;;;;;;;;;;21.49;53.40;101955.38;5058777;28;4280;-64
2022/11/30 07:19:13;;;;;;;;;;;;;;;21.48;53.56;101948.09;5059629;28;5280;-64
2022/11/30 07:21:40;;;;;;;;;;;;;;;21.47;53.08;101958.13;5060118;28;3967;-64
2022/11/30 07:26:51;;;;;;;;;;;;;;;21.52;53.15;101965.63;5048230;28;4048;-63
2022/11/30 07:29:18;;;;;;;;;;;;;;;21.51;53.28;101969.91;5049377;28;4080;-64
2022/11/30 07:31:47;;;;;;;;;;;;;;;21.48;53.41;101976.91;5050409;28;4203;-64
2022/11/30 07:34:13;;;;;;;;;;;;;;;21.43;53.30;101975.16;5048998;28;4191;-64
2022/11/30 07:36:40;;;;;;;;;;;;;;;21.44;53.04;101976.66;5043641;28;5516;-63
2022/11/30 07:39:06;;;;;;;;;;;;;;;21.43;52.77;101972.28;5040336;28;4110;-64
2022/11/30 07:41:32;;;;;;;;;;;;;;;21.43;52.65;101983.81;5049270;28;4244;-65
2022/11/30 07:44:02;;;;;;;;;;;;;;;21.39;52.88;101980.66;5041693;28;4174;-62
2022/11/30 07:46:30;;;;;;;;;;;;;;;21.43;52.39;101989.56;5047715;28;5321;-64
2022/11/30 07:48:56;;;;;;;;;;;;;;;21.41;52.37;101986.56;5047858;28;4012;-64
2022/11/30 07:51:23;;;;;;;;;;;;;;;21.39;52.37;101978.50;5042939;28;4472;-64
2022/11/30 07:53:49;;;;;;;;;;;;;;;21.37;51.99;101978.38;5044718;28;4200;-64
2022/11/30 07:56:18;;;;;;;;;;;;;;;21.38;51.69;101979.16;5042724;28;5071;-64
2022/11/30 07:58:45;;;;;;;;;;;;;;;21.38;51.77;101979.91;5042556;28;4142;-64
2022/11/30 08:01:12;;;;;;;;;;;;;;;21.36;52.06;101984.78;5044912;28;5000;-64
2022/11/30 08:03:38;;;;;;;;;;;;;;;21.34;52.11;101973.88;5040291;28;4075;-64
2022/11/30 08:06:06;;;;;;;;;;;;;;;21.33;52.16;101978.16;5046252;28;4252;-64
2022/11/30 08:08:33;;;;;;;;;;;;;;;21.31;51.87;101978.78;5042885;28;5320;-64
2022/11/30 08:10:59;;;;;;;;;;;;;;;21.33;52.09;101989.69;5044066;28;4263;-64
2022/11/30 08:13:25;;;;;;;;;;;;;;;21.36;51.77;101981.91;5043737;28;4121;-64
2022/11/30 08:15:51;;;;;;;;;;;;;;;21.36;51.68;101984.78;5044213;28;4131;-64
2022/11/30 08:18:18;;;;;;;;;;;;;;;21.36;51.20;101987.69;5043757;28;5077;-63
2022/11/30 08:20:47;;;;;;;;;;;;;;;21.33;51.21;101993.31;5056801;28;4162;-64
2022/11/30 08:23:15;;;;;;;;;;;;;;;21.34;51.10;101988.31;5049020;28;4084;-64
2022/11/30 08:25:41;;;;;;;;;;;;;;;21.36;50.84;101999.19;5052152;28;4270;-64
2022/11/30 08:28:08;;;;;;;;;;;;;;;21.29;49.63;102001.72;5045337;28;4229;-63
2022/11/30 08:30:34;;;;;;;;;;;;;;;21.31;48.87;101998.94;5052478;28;4100;-63
2022/11/30 08:33:01;;;;;;;;;;;;;;;21.32;49.17;101997.56;5046077;28;4246;-64
2022/11/30 08:35:27;;;;;;;;;;;;;;;21.32;49.65;102000.44;5041636;28;4227;-65
2022/11/30 08:37:54;;;;;;;;;;;;;;;21.34;49.75;102000.56;5051320;28;4115;-64
2022/11/30 08:40:20;;;;;;;;;;;;;;;21.36;50.07;101999.19;5055138;28;4104;-64
2022/11/30 08:42:46;;;;;;;;;;;;;;;21.36;50.42;102004.97;5050028;28;4107;-65
2022/11/30 08:45:13;;;;;;;;;;;;;;;21.37;50.19;102006.47;5047985;28;5352;-65
2022/11/30 08:47:39;;;;;;;;;;;;;;;21.39;50.63;102009.47;5052183;28;5285;-63
2022/11/30 08:50:05;;;;;;;;;;;;;;;21.40;50.37;102017.53;5047160;28;4190;-63
2022/11/30 08:52:32;;;;;;;;;;;;;;;21.40;51.04;102019.63;5046493;28;4092;-64
2022/11/30 08:54:58;;;;;;;;;;;;;;;21.42;50.75;102019.78;5050178;28;6625;-64
2022/11/30 08:57:25;;;;;;;;;;;;;;;21.42;51.01;102025.53;5042102;28;4221;-64
2022/11/30 08:59:51;;;;;;;;;;;;;;;21.43;51.11;102021.28;5052888;28;5353;-65
2022/11/30 09:02:18;;;;;;;;;;;;;;;21.43;51.09;102021.28;5050288;28;5313;-64
2022/11/30 09:04:46;;;;;;;;;;;;;;;21.43;50.96;102027.03;5056799;28;4128;-65
2022/11/30 09:07:12;;;;;;;;;;;;;;;21.42;50.97;102023.41;5049750;28;5614;-64
2022/11/30 09:09:39;;;;;;;;;;;;;;;21.42;51.08;102016.91;5049290;28;5162;-64
2022/11/30 09:12:05;;;;;;;;;;;;;;;21.41;51.08;102018.25;5048829;28;4204;-64
2022/11/30 09:14:32;;;;;;;;;;;;;;;21.41;51.08;102021.88;5056460;28;3972;-65
2022/11/30 09:16:58;;;;;;;;;;;;;;;21.40;50.98;102025.38;5039907;28;4142;-64
2022/11/30 09:19:24;;;;;;;;;;;;;;;21.40;50.83;102026.16;5049661;28;5353;-64
2022/11/30 09:21:51;;;;;;;;;;;;;;;21.42;50.78;102025.53;5051220;28;5252;-64
2022/11/30 09:24:18;;;;;;;;;;;;;;;21.42;51.04;102026.28;5047424;28;3945;-64
2022/11/30 09:26:44;;;;;;;;;;;;;;;21.43;50.86;102027.03;5044871;28;4168;-64
2022/11/30 09:29:11;;;;;;;;;;;;;;;21.43;50.75;102032.78;5039582;28;4198;-64
2022/11/30 09:31:37;;;;;;;;;;;;;;;21.43;50.48;102024.16;5037737;28;5425;-64
2022/11/30 09:34:04;;;;;;;;;;;;;;;21.42;50.60;102034.94;5035824;28;4480;-66
2022/11/30 09:36:31;;;;;;;;;;;;;;;21.30;49.46;102032.03;5038574;28;4214;-65
2022/11/30 09:38:58;;;;;;;;;;;;;;;21.27;48.99;102030.38;5039633;28;4171;-65
2022/11/30 09:41:27;;;;;;;;;;;;;;;21.29;48.70;102024.75;5036884;28;4524;-63
2022/11/30 09:44:08;;;;;;;;;;;;;;;21.31;48.30;102022.00;5047816;28;3996;-64
2022/11/30 09:46:53;;;;;;;;;;;;;;;21.14;47.70;102028.13;5042880;28;4278;-63
2022/11/30 09:49:23;;;;;;;;;;;;;;;20.06;44.58;102030.63;5039642;28;4204;-64
2022/11/30 09:51:51;;;;;;;;;;;;;;;19.18;41.28;102031.16;5042580;28;4147;-65
2022/11/30 09:54:19;;;;;;;;;;;;;;;18.94;40.17;102027.31;5041051;28;5541;-64
2022/11/30 09:56:45;;;;;;;;;;;;;;;18.48;39.38;102024.69;5041019;28;4131;-59
2022/11/30 09:59:19;;;;;;;;;;;;;;;18.73;38.70;102022.22;5032724;28;4237;-66
2022/11/30 10:01:47;;;;;;;;;;;;;;;19.40;38.02;102023.34;5040363;28;5210;-62
2022/11/30 10:04:22;;;;;;;;;;;;;;;19.92;39.53;102024.69;5053786;28;4135;-60
2022/11/30 10:07:07;;;;;;;;;;;;;;;19.40;40.11;102028.31;5038748;28;4246;-66
2022/11/30 10:09:37;;;;;;;;;;;;;;;19.00;42.01;102027.00;5033856;28;4067;-66
2022/11/30 10:12:04;;;;;;;;;;;;;;;19.03;41.45;102020.03;5042918;28;3997;-71
2022/11/30 10:14:47;;;;;;;;;;;;;;;18.96;42.83;102020.97;5039159;28;4242;-58
2022/11/30 10:17:14;;;;;;;;;;;;;;;18.72;46.65;102019.97;5042111;28;4178;-56
2022/11/30 10:19:45;;;;;;;;;;;;;;;19.74;44.64;102014.84;5041548;28;4005;-56
2022/11/30 10:22:12;;;;;;;;;;;;;;;20.25;44.71;102015.34;5041682;28;4108;-53
2022/11/30 10:24:41;;;;;;;;;;;;;;;20.40;45.85;102019.88;5043678;28;4118;-54
2022/11/30 10:27:20;;;;;;;;;;;;;;;20.44;45.13;102003.63;5037295;28;5179;-55
2022/11/30 10:29:47;;;;;;;;;;;;;;;20.46;44.48;102009.50;5017328;28;5192;-53
2022/11/30 10:32:20;;;;;;;;;;;;;;;20.48;44.62;102021.16;5038376;28;4359;-56
2022/11/30 10:34:53;;;;;;;;;;;;;;;20.56;44.69;102009.44;5040402;28;4850;-52
2022/11/30 10:37:33;;;;;;;;;;;;;;;20.61;44.69;102016.19;5033652;28;4235;-55
2022/11/30 10:40:03;;;;;;;;;;;;;;;20.66;45.05;102012.19;5037658;28;4705;-51
2022/11/30 10:42:41;;;;;;;;;;;;;;;20.70;45.33;102012.47;5034866;28;4149;-54
2022/11/30 10:45:09;;;;;;;;;;;;;;;20.71;45.42;102008.97;5039701;28;4083;-54
2022/11/30 10:47:37;;;;;;;;;;;;;;;20.74;45.82;102012.72;5038109;28;4469;-56
2022/11/30 10:50:03;;;;;;;;;;;;;;;20.77;45.82;102008.59;5028714;28;4489;-55
2022/11/30 10:52:31;;;;;;;;;;;;;;;20.78;45.94;102006.47;5035802;28;5652;-55
2022/11/30 10:54:57;;;;;;;;;;;;;;;20.79;46.25;102014.47;5038541;28;4175;-57
2022/11/30 10:57:30;;;;;;;;;;;;;;;20.85;46.67;102017.75;5038278;28;4133;-55
2022/11/30 10:59:57;;;;;;;;;;;;;;;20.89;46.96;102014.34;5030928;28;4177;-54
2022/11/30 11:02:33;;;;;;;;;;;;;;;20.89;47.93;102006.47;5039729;28;5232;-54
2022/11/30 11:05:07;;;;;;;;;;;;;;;20.91;47.87;102015.25;5039791;28;5379;-57
2022/11/30 11:07:33;;;;;;;;;;;;;;;20.08;42.98;102020.00;5045661;28;4770;-54
2022/11/30 11:10:00;;;;;;;;;;;;;;;19.09;40.66;102029.09;5039272;28;4157;-48
2022/11/30 11:12:27;;;;;;;;;;;;;;;19.14;40.08;102028.00;5039189;28;4031;-54
2022/11/30 11:15:06;;;;;;;;;;;;;;;19.83;41.09;102028.38;5042984;28;4175;-54
2022/11/30 11:17:33;;;;;;;;;;;;;;;20.28;43.57;102025.59;5038851;28;5163;-52
2022/11/30 11:19:59;;;;;;;;;;;;;;;20.56;44.12;102020.94;5040512;28;4102;-54
2022/11/30 11:22:26;;;;;;;;;;;;;;;20.70;45.07;102023.97;5040648;28;4265;-55
2022/11/30 11:24:52;;;;;;;;;;;;;;;20.76;44.92;102027.25;5046098;28;5007;-57
2022/11/30 11:27:19;;;;;;;;;;;;;;;20.80;45.69;102020.97;5042484;28;4185;-55
2022/11/30 11:29:45;;;;;;;;;;;;;;;20.83;46.42;102031.25;5041237;28;4410;-55
2022/11/30 11:32:12;;;;;;;;;;;;;;;20.82;46.25;102021.88;5044719;28;4358;-55
2022/11/30 11:34:38;;;;;;;;;;;;;;;20.86;47.05;102025.00;5042495;28;4450;-59
2022/11/30 11:37:06;;;;;;;;;;;;;;;20.80;46.26;102015.22;5041846;28;4113;-54
2022/11/30 11:39:32;;;;;;;;;;;;;;;20.69;46.59;102028.97;5043733;28;5164;-55
2022/11/30 11:41:59;;;;;;;;;;;;;;;20.70;47.02;102029.72;5039595;28;3987;-54
2022/11/30 11:44:26;;;;;;;;;;;;;;;20.78;46.95;102032.38;5044561;28;4467;-51
2022/11/30 11:46:54;;;;;;;;;;;;;;;20.81;46.88;102023.25;5052571;28;4124;-51
2022/11/30 11:49:22;;;;;;;;;;;;;;;20.82;47.12;102023.97;5052071;28;4188;-53
2022/11/30 11:51:48;;;;;;;;;;;;;;;20.85;47.29;102031.41;5044923;28;4294;-53
2022/11/30 11:54:26;;;;;;;;;;;;;;;20.88;47.35;102028.00;5050634;28;4057;-55
2022/11/30 11:56:53;;;;;;;;;;;;;;;20.90;47.74;102033.88;5045836;28;4397;-52
2022/11/30 11:59:38;;;;;;;;;;;;;;;20.91;47.50;102028.88;5060224;28;4366;-52
2022/11/30 12:02:20;;;;;;;;;;;;;;;20.91;47.79;102026.78;5050353;28;5556;-52
2022/11/30 12:04:49;;;;;;;;;;;;;;;20.91;47.59;102023.91;5049453;28;4257;-54
2022/11/30 12:07:18;;;;;;;;;;;;;;;20.93;47.95;102034.75;5050932;28;5219;-54
2022/11/30 12:09:56;;;;;;;;;;;;;;;20.93;47.93;102035.50;5047535;28;5471;-51
2022/11/30 12:12:22;;;;;;;;;;;;;;;20.93;48.23;102029.75;5049991;28;4510;-53
2022/11/30 12:14:48;;;;;;;;;;;;;;;20.95;48.10;102034.16;5052619;28;4319;-52
2022/11/30 12:17:34;;;;;;;;;;;;;;;20.97;48.16;102034.28;5048679;28;4060;-54
2022/11/30 12:20:00;;;;;;;;;;;;;;;20.97;48.24;102023.50;5048638;28;5441;-53
2022/11/30 12:22:43;;;;;;;;;;;;;;;20.98;48.41;102033.66;5045162;28;4303;-52
2022/11/30 12:25:28;;;;;;;;;;;;;;;20.99;48.59;102034.41;5048120;28;4036;-54
2022/11/30 12:28:15;;;;;;;;;;;;;;;20.75;46.87;102040.13;5049685;28;6129;-50
2022/11/30 12:30:46;;;;;;;;;;;;;;;19.11;41.62;102046.47;5047108;28;4180;-50
2022/11/30 12:33:23;;;;;;;;;;;;;;;19.62;43.09;102047.09;5041253;28;4026;-53
2022/11/30 12:35:55;;;;;;;;;;;;;;;20.05;42.82;102044.25;5047316;28;5273;-53
2022/11/30 12:38:30;;;;;;;;;;;;;;;20.36;43.18;102043.38;5047997;28;4279;-55
2022/11/30 12:41:03;;;;;;;;;;;;;;;20.59;45.12;102050.59;5042787;28;5360;-57
2022/11/30 12:43:35;;;;;;;;;;;;;;;20.73;45.13;102045.00;5044807;28;4194;-54
2022/11/30 12:46:05;;;;;;;;;;;;;;;20.83;45.58;102049.28;5041767;28;4012;-53
2022/11/30 12:48:37;;;;;;;;;;;;;;;20.87;46.32;102038.03;5048616;28;5217;-53
2022/11/30 12:51:07;;;;;;;;;;;;;;;20.90;46.41;102041.78;5046269;28;5708;-53
2022/11/30 12:53:52;;;;;;;;;;;;;;;20.87;46.67;102049.53;5046117;28;4327;-52
2022/11/30 12:56:29;;;;;;;;;;;;;;;20.88;46.59;102045.28;5045422;28;4502;-52